createdAt,value
2018-09-01T23:16:27.627Z,89.28
2018-09-01T23:17:27.377Z,89.86
2018-09-01T23:18:27.692Z,90.14
2018-09-01T23:19:27.727Z,89.86
2018-09-01T23:20:27.751Z,90.33
2018-09-01T23:21:27.793Z,90.33
2018-09-01T23:22:27.816Z,90.09
2018-09-01T23:23:27.855Z,90.29
2018-09-01T23:24:28.114Z,90.29
2018-09-01T23:25:28.150Z,90.09
2018-09-01T23:26:27.903Z,90.14
2018-09-01T23:27:27.941Z,90.39
2018-09-01T23:28:28.489Z,90.33
2018-09-01T23:29:28.231Z,90.86
2018-09-01T23:30:28.762Z,90.67
2018-09-01T23:31:28.852Z,90.67
2018-09-01T23:32:28.831Z,91.15
2018-09-01T23:33:28.949Z,91.05
2018-09-01T23:34:28.964Z,91.05
2018-09-01T23:35:29.486Z,91.92
2018-09-01T23:36:29.519Z,91.63
2018-09-01T23:37:29.293Z,91.92
2018-09-01T23:38:29.309Z,92.21
2018-09-01T23:39:29.577Z,92.01
2018-09-01T23:40:29.611Z,91.53
2018-09-01T23:41:29.913Z,91.82
2018-09-01T23:42:29.952Z,91.72
2018-09-01T23:43:29.987Z,91.72
2018-09-01T23:44:30.273Z,92.01
2018-09-01T23:45:30.525Z,92.11
2018-09-01T23:46:30.063Z,92.3
2018-09-01T23:47:30.085Z,92.11
2018-09-01T23:48:30.324Z,92.4
2018-09-01T23:49:30.631Z,92.68
2018-09-01T23:50:30.683Z,92.21
2018-09-01T23:51:30.424Z,92.3
2018-09-01T23:52:30.733Z,92.68
2018-09-01T23:53:30.954Z,92.49
2018-09-01T23:54:30.993Z,92.49
2018-09-01T23:55:31.023Z,92.21
2018-09-01T23:56:31.054Z,92.11
2018-09-01T23:57:30.816Z,92.68
2018-09-01T23:58:31.123Z,92.58
2018-09-01T23:59:31.173Z,93.07
